sensor_id;sensor_type;location;lat;lon;timestamp;temperature;humidity
18807;DHT22;9531;52.030;4.380;2022-12-07T00:00:47;4.30;1.00
18807;DHT22;9531;52.030;4.380;2022-12-07T00:05:49;4.30;99.90
18807;DHT22;9531;52.030;4.380;2022-12-07T00:08:24;4.30;99.90
18807;DHT22;9531;52.030;4.380;2022-12-07T00:13:27;4.20;99.90
18807;DHT22;9531;52.030;4.380;2022-12-07T00:16:00;4.20;99.90
18807;DHT22;9531;52.030;4.380;2022-12-07T00:21:08;4.10;99.90
18807;DHT22;9531;52.030;4.380;2022-12-07T00:23:46;4.00;99.90
18807;DHT22;9531;52.030;4.380;2022-12-07T00:26:28;8.60;1.00
18807;DHT22;9531;52.030;4.380;2022-12-07T00:29:16;3.90;99.90
18807;DHT22;9531;52.030;4.380;2022-12-07T00:32:24;3.80;99.90
18807;DHT22;9531;52.030;4.380;2022-12-07T00:35:11;3.80;1.00
18807;DHT22;9531;52.030;4.380;2022-12-07T00:38:04;3.70;99.90
18807;DHT22;9531;52.030;4.380;2022-12-07T00:41:02;5.90;1.40
18807;DHT22;9531;52.030;4.380;2022-12-07T00:43:55;3.90;1.40
18807;DHT22;9531;52.030;4.380;2022-12-07T00:46:52;2.10;1.00
18807;DHT22;9531;52.030;4.380;2022-12-07T00:50:22;3.50;1.00
18807;DHT22;9531;52.030;4.380;2022-12-07T00:57:05;3.30;1.00
18807;DHT22;9531;52.030;4.380;2022-12-07T01:00:27;3.30;1.00
18807;DHT22;9531;52.030;4.380;2022-12-07T01:05:53;3.20;1.00
18807;DHT22;9531;52.030;4.380;2022-12-07T01:08:51;3.10;1.00
18807;DHT22;9531;52.030;4.380;2022-12-07T01:11:54;3.00;1.00
18807;DHT22;9531;52.030;4.380;2022-12-07T01:14:58;3.00;1.00
18807;DHT22;9531;52.030;4.380;2022-12-07T01:17:50;3.00;1.00
18807;DHT22;9531;52.030;4.380;2022-12-07T01:21:09;2.90;1.00
18807;DHT22;9531;52.030;4.380;2022-12-07T01:24:09;2.80;1.00
18807;DHT22;9531;52.030;4.380;2022-12-07T01:27:33;2.90;1.00
18807;DHT22;9531;52.030;4.380;2022-12-07T01:31:03;2.80;1.00
18807;DHT22;9531;52.030;4.380;2022-12-07T01:34:23;2.80;1.00
18807;DHT22;9531;52.030;4.380;2022-12-07T01:37:14;2.80;1.00
18807;DHT22;9531;52.030;4.380;2022-12-07T01:40:32;2.80;1.00
18807;DHT22;9531;52.030;4.380;2022-12-07T01:43:23;2.80;1.00
18807;DHT22;9531;52.030;4.380;2022-12-07T01:46:10;2.80;1.00
18807;DHT22;9531;52.030;4.380;2022-12-07T01:48:59;2.80;1.00
18807;DHT22;9531;52.030;4.380;2022-12-07T01:51:51;1.10;1.00
18807;DHT22;9531;52.030;4.380;2022-12-07T01:57:05;2.90;1.00
18807;DHT22;9531;52.030;4.380;2022-12-07T01:59:41;2.90;1.00
18807;DHT22;9531;52.030;4.380;2022-12-07T02:02:32;3.00;1.00
18807;DHT22;9531;52.030;4.380;2022-12-07T02:05:06;3.00;1.00
18807;DHT22;9531;52.030;4.380;2022-12-07T02:07:46;3.10;1.00
18807;DHT22;9531;52.030;4.380;2022-12-07T02:10:21;3.10;1.00
18807;DHT22;9531;52.030;4.380;2022-12-07T02:13:04;3.10;1.00
18807;DHT22;9531;52.030;4.380;2022-12-07T02:15:59;3.00;1.00
18807;DHT22;9531;52.030;4.380;2022-12-07T02:18:47;3.10;1.00
18807;DHT22;9531;52.030;4.380;2022-12-07T02:21:22;3.10;1.00
18807;DHT22;9531;52.030;4.380;2022-12-07T02:24:27;3.00;1.00
18807;DHT22;9531;52.030;4.380;2022-12-07T02:27:25;3.00;1.00
18807;DHT22;9531;52.030;4.380;2022-12-07T02:30:11;3.00;1.00
18807;DHT22;9531;52.030;4.380;2022-12-07T02:33:03;1.50;1.00
18807;DHT22;9531;52.030;4.380;2022-12-07T02:35:46;3.00;1.00
18807;DHT22;9531;52.030;4.380;2022-12-07T02:38:44;2.90;1.00
18807;DHT22;9531;52.030;4.380;2022-12-07T02:41:24;2.90;1.00
18807;DHT22;9531;52.030;4.380;2022-12-07T02:44:08;2.80;1.00
18807;DHT22;9531;52.030;4.380;2022-12-07T02:46:46;2.80;1.00
18807;DHT22;9531;52.030;4.380;2022-12-07T02:49:26;2.80;1.00
18807;DHT22;9531;52.030;4.380;2022-12-07T02:51:58;2.80;1.00
18807;DHT22;9531;52.030;4.380;2022-12-07T02:54:34;2.80;1.00
18807;DHT22;9531;52.030;4.380;2022-12-07T02:57:28;2.70;1.00
18807;DHT22;9531;52.030;4.380;2022-12-07T03:00:12;2.80;1.00
18807;DHT22;9531;52.030;4.380;2022-12-07T03:02:56;2.80;1.00
18807;DHT22;9531;52.030;4.380;2022-12-07T03:05:47;2.90;1.00
18807;DHT22;9531;52.030;4.380;2022-12-07T03:08:23;2.90;1.00
18807;DHT22;9531;52.030;4.380;2022-12-07T03:10:56;7.10;1.00
18807;DHT22;9531;52.030;4.380;2022-12-07T03:13:29;3.10;1.00
18807;DHT22;9531;52.030;4.380;2022-12-07T03:16:02;3.10;1.00
18807;DHT22;9531;52.030;4.380;2022-12-07T03:18:38;3.10;1.00
18807;DHT22;9531;52.030;4.380;2022-12-07T03:21:26;3.20;1.00
18807;DHT22;9531;52.030;4.380;2022-12-07T03:24:13;3.20;1.00
18807;DHT22;9531;52.030;4.380;2022-12-07T03:26:50;2.80;1.00
18807;DHT22;9531;52.030;4.380;2022-12-07T03:29:25;3.20;1.00
18807;DHT22;9531;52.030;4.380;2022-12-07T03:32:19;3.30;1.00
18807;DHT22;9531;52.030;4.380;2022-12-07T03:35:38;3.30;1.00
18807;DHT22;9531;52.030;4.380;2022-12-07T03:38:32;3.30;1.00
18807;DHT22;9531;52.030;4.380;2022-12-07T03:41:22;3.40;1.00
18807;DHT22;9531;52.030;4.380;2022-12-07T03:47:42;3.40;1.40
18807;DHT22;9531;52.030;4.380;2022-12-07T03:51:11;3.40;1.40
18807;DHT22;9531;52.030;4.380;2022-12-07T03:54:13;3.30;99.90
18807;DHT22;9531;52.030;4.380;2022-12-07T03:57:54;3.30;99.90
18807;DHT22;9531;52.030;4.380;2022-12-07T04:04:24;3.30;1.00
18807;DHT22;9531;52.030;4.380;2022-12-07T04:07:37;1.20;1.00
18807;DHT22;9531;52.030;4.380;2022-12-07T04:10:34;3.20;99.90
18807;DHT22;9531;52.030;4.380;2022-12-07T04:20:57;3.20;1.40
18807;DHT22;9531;52.030;4.380;2022-12-07T04:31:10;3.00;1.40
18807;DHT22;9531;52.030;4.380;2022-12-07T04:34:26;3.00;99.90
18807;DHT22;9531;52.030;4.380;2022-12-07T06:33:21;1.90;1.00
18807;DHT22;9531;52.030;4.380;2022-12-07T06:38:25;1.70;1.00
18807;DHT22;9531;52.030;4.380;2022-12-07T06:43:27;2.10;1.00
18807;DHT22;9531;52.030;4.380;2022-12-07T06:46:06;2.10;1.00
18807;DHT22;9531;52.030;4.380;2022-12-07T06:48:57;2.10;1.00
18807;DHT22;9531;52.030;4.380;2022-12-07T06:52:04;1.90;1.00
18807;DHT22;9531;52.030;4.380;2022-12-07T06:57:17;2.10;1.00
18807;DHT22;9531;52.030;4.380;2022-12-07T06:59:48;1.10;1.00
18807;DHT22;9531;52.030;4.380;2022-12-07T07:02:21;2.10;1.00
18807;DHT22;9531;52.030;4.380;2022-12-07T07:05:06;2.10;1.00
18807;DHT22;9531;52.030;4.380;2022-12-07T07:07:35;2.20;1.00
18807;DHT22;9531;52.030;4.380;2022-12-07T07:10:34;2.70;1.00
18807;DHT22;9531;52.030;4.380;2022-12-07T07:16:47;2.60;1.00
18807;DHT22;9531;52.030;4.380;2022-12-07T07:23:16;2.00;1.00
18807;DHT22;9531;52.030;4.380;2022-12-07T07:26:08;2.10;1.00
18807;DHT22;9531;52.030;4.380;2022-12-07T07:31:39;2.10;1.00
18807;DHT22;9531;52.030;4.380;2022-12-07T07:40:20;2.20;1.00
18807;DHT22;9531;52.030;4.380;2022-12-07T07:50:19;2.40;1.00
18807;DHT22;9531;52.030;4.380;2022-12-07T08:14:09;2.70;1.40
18807;DHT22;9531;52.030;4.380;2022-12-07T08:16:37;2.70;1.00
18807;DHT22;9531;52.030;4.380;2022-12-07T08:19:06;2.70;1.40
18807;DHT22;9531;52.030;4.380;2022-12-07T08:21:41;2.80;1.40
18807;DHT22;9531;52.030;4.380;2022-12-07T08:26:48;2.80;99.90
18807;DHT22;9531;52.030;4.380;2022-12-07T08:29:25;2.80;1.00
18807;DHT22;9531;52.030;4.380;2022-12-07T08:34:24;2.90;99.90
18807;DHT22;9531;52.030;4.380;2022-12-07T08:39:53;2.90;99.90
18807;DHT22;9531;52.030;4.380;2022-12-07T08:42:44;2.90;99.90
18807;DHT22;9531;52.030;4.380;2022-12-07T08:45:24;4.00;1.00
18807;DHT22;9531;52.030;4.380;2022-12-07T08:48:19;-0.50;99.90
18807;DHT22;9531;52.030;4.380;2022-12-07T08:54:26;3.10;99.90
18807;DHT22;9531;52.030;4.380;2022-12-07T09:00:35;3.20;99.90
18807;DHT22;9531;52.030;4.380;2022-12-07T09:09:47;3.50;1.40
18807;DHT22;9531;52.030;4.380;2022-12-07T09:12:46;3.60;1.00
18807;DHT22;9531;52.030;4.380;2022-12-07T09:18:43;3.70;1.00
18807;DHT22;9531;52.030;4.380;2022-12-07T09:21:48;1.50;1.00
18807;DHT22;9531;52.030;4.380;2022-12-07T09:24:23;3.90;1.00
18807;DHT22;9531;52.030;4.380;2022-12-07T09:30:07;3.90;1.00
18807;DHT22;9531;52.030;4.380;2022-12-07T09:31:03;3.90;1.00
18807;DHT22;9531;52.030;4.380;2022-12-07T09:39:16;4.00;1.40
18807;DHT22;9531;52.030;4.380;2022-12-07T09:42:03;4.10;99.90
18807;DHT22;9531;52.030;4.380;2022-12-07T09:48:04;4.00;1.00
18807;DHT22;9531;52.030;4.380;2022-12-07T09:50:57;4.10;1.00
18807;DHT22;9531;52.030;4.380;2022-12-07T09:53:43;4.20;1.00
18807;DHT22;9531;52.030;4.380;2022-12-07T09:56:20;4.30;1.00
18807;DHT22;9531;52.030;4.380;2022-12-07T10:03:17;5.00;1.00
18807;DHT22;9531;52.030;4.380;2022-12-07T10:06:52;5.70;1.00
18807;DHT22;9531;52.030;4.380;2022-12-07T10:13:02;7.70;1.00
18807;DHT22;9531;52.030;4.380;2022-12-07T10:20:20;9.00;99.90
18807;DHT22;9531;52.030;4.380;2022-12-07T10:26:53;9.10;99.90
18807;DHT22;9531;52.030;4.380;2022-12-07T10:29:49;8.90;99.90
18807;DHT22;9531;52.030;4.380;2022-12-07T10:33:01;8.70;99.90
18807;DHT22;9531;52.030;4.380;2022-12-07T10:36:14;8.50;99.90
18807;DHT22;9531;52.030;4.380;2022-12-07T10:42:47;8.10;99.90
18807;DHT22;9531;52.030;4.380;2022-12-07T10:46:36;8.00;99.90
18807;DHT22;9531;52.030;4.380;2022-12-07T10:49:27;8.00;99.90
18807;DHT22;9531;52.030;4.380;2022-12-07T10:52:26;7.90;99.90
18807;DHT22;9531;52.030;4.380;2022-12-07T10:55:26;7.80;99.90
18807;DHT22;9531;52.030;4.380;2022-12-07T11:13:10;7.80;99.90
18807;DHT22;9531;52.030;4.380;2022-12-07T11:16:16;7.90;99.90
18807;DHT22;9531;52.030;4.380;2022-12-07T11:19:46;8.10;99.90
18807;DHT22;9531;52.030;4.380;2022-12-07T11:22:46;10.30;1.00
18807;DHT22;9531;52.030;4.380;2022-12-07T11:25:36;8.30;99.90
18807;DHT22;9531;52.030;4.380;2022-12-07T11:28:31;10.10;99.90
18807;DHT22;9531;52.030;4.380;2022-12-07T11:31:12;7.80;99.90
18807;DHT22;9531;52.030;4.380;2022-12-07T11:33:55;7.50;99.90
18807;DHT22;9531;52.030;4.380;2022-12-07T11:36:36;8.10;99.90
18807;DHT22;9531;52.030;4.380;2022-12-07T11:39:12;7.70;1.00
18807;DHT22;9531;52.030;4.380;2022-12-07T11:41:50;7.80;99.90
18807;DHT22;9531;52.030;4.380;2022-12-07T11:44:27;7.70;99.90
18807;DHT22;9531;52.030;4.380;2022-12-07T11:47:05;7.50;99.90
18807;DHT22;9531;52.030;4.380;2022-12-07T11:49:43;7.30;99.90
18807;DHT22;9531;52.030;4.380;2022-12-07T11:52:20;7.30;99.90
18807;DHT22;9531;52.030;4.380;2022-12-07T11:54:50;7.20;99.90
18807;DHT22;9531;52.030;4.380;2022-12-07T11:57:25;7.10;99.90
18807;DHT22;9531;52.030;4.380;2022-12-07T12:00:01;7.10;99.90
18807;DHT22;9531;52.030;4.380;2022-12-07T12:02:36;7.20;99.90
18807;DHT22;9531;52.030;4.380;2022-12-07T12:05:17;7.30;99.90
18807;DHT22;9531;52.030;4.380;2022-12-07T12:07:47;7.30;99.90
18807;DHT22;9531;52.030;4.380;2022-12-07T12:10:19;10.50;1.00
18807;DHT22;9531;52.030;4.380;2022-12-07T12:13:12;7.60;99.90
18807;DHT22;9531;52.030;4.380;2022-12-07T12:15:59;7.80;99.90
18807;DHT22;9531;52.030;4.380;2022-12-07T12:18:53;8.00;99.90
18807;DHT22;9531;52.030;4.380;2022-12-07T12:21:27;9.60;99.90
18807;DHT22;9531;52.030;4.380;2022-12-07T12:23:58;10.00;1.00
18807;DHT22;9531;52.030;4.380;2022-12-07T12:26:34;8.50;99.90
18807;DHT22;9531;52.030;4.380;2022-12-07T12:29:05;8.60;99.90
18807;DHT22;9531;52.030;4.380;2022-12-07T12:32:03;9.30;99.90
18807;DHT22;9531;52.030;4.380;2022-12-07T12:34:40;8.70;99.90
18807;DHT22;9531;52.030;4.380;2022-12-07T12:37:50;8.80;99.90
18807;DHT22;9531;52.030;4.380;2022-12-07T12:40:41;8.80;99.90
18807;DHT22;9531;52.030;4.380;2022-12-07T12:43:51;8.80;99.90
18807;DHT22;9531;52.030;4.380;2022-12-07T12:46:49;8.80;99.90
18807;DHT22;9531;52.030;4.380;2022-12-07T12:49:39;8.80;99.90
18807;DHT22;9531;52.030;4.380;2022-12-07T12:56:10;8.80;99.90
18807;DHT22;9531;52.030;4.380;2022-12-07T12:59:31;8.80;99.90
18807;DHT22;9531;52.030;4.380;2022-12-07T13:08:03;8.80;99.90
18807;DHT22;9531;52.030;4.380;2022-12-07T13:10:51;12.60;1.00
18807;DHT22;9531;52.030;4.380;2022-12-07T13:13:35;8.40;1.00
18807;DHT22;9531;52.030;4.380;2022-12-07T13:16:48;12.00;1.00
18807;DHT22;9531;52.030;4.380;2022-12-07T13:22:51;8.50;99.90
18807;DHT22;9531;52.030;4.380;2022-12-07T13:26:04;8.10;1.00
18807;DHT22;9531;52.030;4.380;2022-12-07T13:28:39;11.70;99.90
18807;DHT22;9531;52.030;4.380;2022-12-07T13:31:34;8.40;99.90
18807;DHT22;9531;52.030;4.380;2022-12-07T13:37:33;8.30;99.90
18807;DHT22;9531;52.030;4.380;2022-12-07T13:44:02;8.30;99.90
18807;DHT22;9531;52.030;4.380;2022-12-07T13:47:15;8.30;99.90
18807;DHT22;9531;52.030;4.380;2022-12-07T13:50:24;8.20;99.90
18807;DHT22;9531;52.030;4.380;2022-12-07T13:53:00;8.30;99.90
18807;DHT22;9531;52.030;4.380;2022-12-07T13:55:44;8.30;99.90
18807;DHT22;9531;52.030;4.380;2022-12-07T13:58:39;8.30;99.90
18807;DHT22;9531;52.030;4.380;2022-12-07T14:04:50;8.40;99.90
18807;DHT22;9531;52.030;4.380;2022-12-07T14:08:01;8.40;99.90
18807;DHT22;9531;52.030;4.380;2022-12-07T14:11:08;8.20;99.90
18807;DHT22;9531;52.030;4.380;2022-12-07T14:14:01;8.30;99.90
18807;DHT22;9531;52.030;4.380;2022-12-07T14:16:41;8.20;99.90
18807;DHT22;9531;52.030;4.380;2022-12-07T14:19:46;11.80;1.00
18807;DHT22;9531;52.030;4.380;2022-12-07T14:26:04;8.00;99.90
18807;DHT22;9531;52.030;4.380;2022-12-07T14:34:40;7.90;99.90
18807;DHT22;9531;52.030;4.380;2022-12-07T14:37:16;7.90;99.90
18807;DHT22;9531;52.030;4.380;2022-12-07T14:40:25;7.80;99.90
18807;DHT22;9531;52.030;4.380;2022-12-07T14:43:05;7.60;99.90
18807;DHT22;9531;52.030;4.380;2022-12-07T14:45:36;7.80;99.90
18807;DHT22;9531;52.030;4.380;2022-12-07T14:48:49;6.00;1.00
18807;DHT22;9531;52.030;4.380;2022-12-07T14:51:57;7.60;99.90
18807;DHT22;9531;52.030;4.380;2022-12-07T14:57:56;7.50;99.90
18807;DHT22;9531;52.030;4.380;2022-12-07T15:00:50;7.50;99.90
18807;DHT22;9531;52.030;4.380;2022-12-07T15:03:52;9.20;1.00
18807;DHT22;9531;52.030;4.380;2022-12-07T15:10:00;7.30;99.90
18807;DHT22;9531;52.030;4.380;2022-12-07T15:38:37;6.70;99.90
18807;DHT22;9531;52.030;4.380;2022-12-07T15:41:05;6.80;1.00
18807;DHT22;9531;52.030;4.380;2022-12-07T15:46:18;6.40;1.40
18807;DHT22;9531;52.030;4.380;2022-12-07T15:48:45;6.60;99.90
18807;DHT22;9531;52.030;4.380;2022-12-07T15:51:20;6.50;99.90
18807;DHT22;9531;52.030;4.380;2022-12-07T15:53:48;6.60;99.90
18807;DHT22;9531;52.030;4.380;2022-12-07T15:56:18;6.00;1.00
18807;DHT22;9531;52.030;4.380;2022-12-07T16:01:18;6.50;99.90
18807;DHT22;9531;52.030;4.380;2022-12-07T16:03:50;6.40;99.90
18807;DHT22;9531;52.030;4.380;2022-12-07T16:08:59;6.40;99.90
18807;DHT22;9531;52.030;4.380;2022-12-07T16:11:29;7.30;1.00
18807;DHT22;9531;52.030;4.380;2022-12-07T16:14:01;5.10;1.00
18807;DHT22;9531;52.030;4.380;2022-12-07T16:18:57;9.40;1.00
18807;DHT22;9531;52.030;4.380;2022-12-07T16:23:52;6.20;1.00
18807;DHT22;9531;52.030;4.380;2022-12-07T16:26:22;6.10;99.90
18807;DHT22;9531;52.030;4.380;2022-12-07T16:28:49;6.40;99.90
18807;DHT22;9531;52.030;4.380;2022-12-07T16:31:19;6.10;99.90
18807;DHT22;9531;52.030;4.380;2022-12-07T16:33:50;8.50;1.00
18807;DHT22;9531;52.030;4.380;2022-12-07T16:36:20;6.10;99.90
18807;DHT22;9531;52.030;4.380;2022-12-07T16:38:54;4.80;99.90
18807;DHT22;9531;52.030;4.380;2022-12-07T16:41:29;6.00;99.90
18807;DHT22;9531;52.030;4.380;2022-12-07T16:43:58;8.50;99.90
18807;DHT22;9531;52.030;4.380;2022-12-07T16:46:29;6.50;1.40
18807;DHT22;9531;52.030;4.380;2022-12-07T16:49:13;5.90;99.90
18807;DHT22;9531;52.030;4.380;2022-12-07T16:52:13;5.90;1.00
18807;DHT22;9531;52.030;4.380;2022-12-07T16:55:39;8.10;99.90
18807;DHT22;9531;52.030;4.380;2022-12-07T16:58:15;5.80;99.90
18807;DHT22;9531;52.030;4.380;2022-12-07T17:00:50;6.00;99.90
18807;DHT22;9531;52.030;4.380;2022-12-07T17:03:20;5.70;99.90
18807;DHT22;9531;52.030;4.380;2022-12-07T17:05:49;8.10;1.00
18807;DHT22;9531;52.030;4.380;2022-12-07T17:08:16;5.70;1.00
18807;DHT22;9531;52.030;4.380;2022-12-07T17:10:44;5.70;99.90
18807;DHT22;9531;52.030;4.380;2022-12-07T17:13:17;5.70;99.90
18807;DHT22;9531;52.030;4.380;2022-12-07T17:16:05;5.70;99.90
18807;DHT22;9531;52.030;4.380;2022-12-07T17:18:34;5.60;99.90
18807;DHT22;9531;52.030;4.380;2022-12-07T17:21:02;5.70;99.90
18807;DHT22;9531;52.030;4.380;2022-12-07T17:23:32;5.60;99.90
18807;DHT22;9531;52.030;4.380;2022-12-07T17:26:07;5.70;99.90
18807;DHT22;9531;52.030;4.380;2022-12-07T17:28:36;5.60;99.90
18807;DHT22;9531;52.030;4.380;2022-12-07T17:31:05;5.60;99.90
18807;DHT22;9531;52.030;4.380;2022-12-07T17:36:09;5.60;99.90
18807;DHT22;9531;52.030;4.380;2022-12-07T17:41:10;5.60;99.90
18807;DHT22;9531;52.030;4.380;2022-12-07T17:43:39;3.90;99.90
18807;DHT22;9531;52.030;4.380;2022-12-07T17:46:07;6.10;99.90
18807;DHT22;9531;52.030;4.380;2022-12-07T17:51:02;5.50;1.00
18807;DHT22;9531;52.030;4.380;2022-12-07T17:53:48;5.50;99.90
18807;DHT22;9531;52.030;4.380;2022-12-07T17:56:18;5.50;1.00
18807;DHT22;9531;52.030;4.380;2022-12-07T17:58:46;5.50;99.90
18807;DHT22;9531;52.030;4.380;2022-12-07T18:01:14;2.80;1.40
18807;DHT22;9531;52.030;4.380;2022-12-07T18:08:45;5.30;99.90
18807;DHT22;9531;52.030;4.380;2022-12-07T18:13:41;10.20;1.00
18807;DHT22;9531;52.030;4.380;2022-12-07T18:16:12;10.80;1.00
18807;DHT22;9531;52.030;4.380;2022-12-07T18:18:40;4.10;1.00
18807;DHT22;9531;52.030;4.380;2022-12-07T18:21:10;5.40;99.90
18807;DHT22;9531;52.030;4.380;2022-12-07T18:23:39;5.00;99.90
18807;DHT22;9531;52.030;4.380;2022-12-07T18:26:06;10.80;1.00
18807;DHT22;9531;52.030;4.380;2022-12-07T18:28:35;4.70;99.90
18807;DHT22;9531;52.030;4.380;2022-12-07T18:33:31;4.60;99.90
18807;DHT22;9531;52.030;4.380;2022-12-07T18:35:59;6.80;99.90
18807;DHT22;9531;52.030;4.380;2022-12-07T18:38:27;5.30;1.00
18807;DHT22;9531;52.030;4.380;2022-12-07T18:40:55;2.00;99.90
18807;DHT22;9531;52.030;4.380;2022-12-07T18:53:12;5.00;99.90
18807;DHT22;9531;52.030;4.380;2022-12-07T18:58:13;1.50;1.00
18807;DHT22;9531;52.030;4.380;2022-12-07T19:00:44;5.20;99.90
18807;DHT22;9531;52.030;4.380;2022-12-07T19:05:57;5.10;99.90
18807;DHT22;9531;52.030;4.380;2022-12-07T19:08:31;6.80;99.90
18807;DHT22;9531;52.030;4.380;2022-12-07T19:11:03;5.10;99.90
18807;DHT22;9531;52.030;4.380;2022-12-07T19:13:51;4.70;1.00
18807;DHT22;9531;52.030;4.380;2022-12-07T19:19:29;7.40;1.00
18807;DHT22;9531;52.030;4.380;2022-12-07T19:22:02;4.90;1.00
18807;DHT22;9531;52.030;4.380;2022-12-07T19:24:34;5.00;99.90
18807;DHT22;9531;52.030;4.380;2022-12-07T19:27:09;5.00;1.40
18807;DHT22;9531;52.030;4.380;2022-12-07T19:29:44;5.00;99.90
18807;DHT22;9531;52.030;4.380;2022-12-07T19:32:12;5.00;99.90
18807;DHT22;9531;52.030;4.380;2022-12-07T19:34:45;2.70;1.00
18807;DHT22;9531;52.030;4.380;2022-12-07T19:37:15;4.90;99.90
18807;DHT22;9531;52.030;4.380;2022-12-07T19:39:47;4.90;99.90
18807;DHT22;9531;52.030;4.380;2022-12-07T19:42:17;4.90;99.90
18807;DHT22;9531;52.030;4.380;2022-12-07T19:44:45;4.90;1.00
18807;DHT22;9531;52.030;4.380;2022-12-07T19:47:12;4.80;1.00
18807;DHT22;9531;52.030;4.380;2022-12-07T20:23:09;4.90;99.90
18807;DHT22;9531;52.030;4.380;2022-12-07T20:25:45;4.80;99.90
18807;DHT22;9531;52.030;4.380;2022-12-07T20:30:07;4.80;99.90
18807;DHT22;9531;52.030;4.380;2022-12-07T20:35:02;4.70;99.90
18807;DHT22;9531;52.030;4.380;2022-12-07T20:37:30;4.70;99.90
18807;DHT22;9531;52.030;4.380;2022-12-07T20:45:07;4.70;99.90
18807;DHT22;9531;52.030;4.380;2022-12-07T20:50:03;4.70;99.90
18807;DHT22;9531;52.030;4.380;2022-12-07T21:02:21;4.70;1.40
18807;DHT22;9531;52.030;4.380;2022-12-07T21:09:44;4.70;1.40
18807;DHT22;9531;52.030;4.380;2022-12-07T21:19:35;4.70;1.00
18807;DHT22;9531;52.030;4.380;2022-12-07T21:22:03;4.70;1.40
18807;DHT22;9531;52.030;4.380;2022-12-07T21:34:20;4.70;1.40
18807;DHT22;9531;52.030;4.380;2022-12-07T21:36:48;4.70;1.40
18807;DHT22;9531;52.030;4.380;2022-12-07T21:39:15;2.10;1.00
18807;DHT22;9531;52.030;4.380;2022-12-07T21:41:42;4.70;1.00
18807;DHT22;9531;52.030;4.380;2022-12-07T21:46:38;4.70;1.40
18807;DHT22;9531;52.030;4.380;2022-12-07T21:49:13;4.60;1.40
18807;DHT22;9531;52.030;4.380;2022-12-07T21:51:49;4.60;1.40
18807;DHT22;9531;52.030;4.380;2022-12-07T21:56:53;4.60;1.00
18807;DHT22;9531;52.030;4.380;2022-12-07T22:01:48;4.50;1.00
18807;DHT22;9531;52.030;4.380;2022-12-07T22:04:24;6.10;1.00
18807;DHT22;9531;52.030;4.380;2022-12-07T22:06:53;3.20;1.00
18807;DHT22;9531;52.030;4.380;2022-12-07T22:14:20;4.40;1.00
18807;DHT22;9531;52.030;4.380;2022-12-07T22:17:05;4.40;1.00
18807;DHT22;9531;52.030;4.380;2022-12-07T22:22:14;4.30;1.00
18807;DHT22;9531;52.030;4.380;2022-12-07T22:24:46;4.30;1.00
18807;DHT22;9531;52.030;4.380;2022-12-07T22:27:19;4.30;1.00
18807;DHT22;9531;52.030;4.380;2022-12-07T22:32:20;4.30;1.00
18807;DHT22;9531;52.030;4.380;2022-12-07T22:34:48;4.30;1.00
18807;DHT22;9531;52.030;4.380;2022-12-07T22:37:16;4.30;1.00
18807;DHT22;9531;52.030;4.380;2022-12-07T22:39:48;4.30;1.00
18807;DHT22;9531;52.030;4.380;2022-12-07T22:44:46;4.40;1.00
18807;DHT22;9531;52.030;4.380;2022-12-07T22:47:14;4.20;1.00
18807;DHT22;9531;52.030;4.380;2022-12-07T22:49:45;4.40;1.00
18807;DHT22;9531;52.030;4.380;2022-12-07T22:52:24;4.40;1.00
18807;DHT22;9531;52.030;4.380;2022-12-07T22:55:02;4.40;1.00
18807;DHT22;9531;52.030;4.380;2022-12-07T23:04:51;4.40;1.00
18807;DHT22;9531;52.030;4.380;2022-12-07T23:07:20;4.40;1.00
18807;DHT22;9531;52.030;4.380;2022-12-07T23:09:48;4.40;1.00
18807;DHT22;9531;52.030;4.380;2022-12-07T23:24:50;4.30;1.00
18807;DHT22;9531;52.030;4.380;2022-12-07T23:34:39;4.10;1.00
18807;DHT22;9531;52.030;4.380;2022-12-07T23:37:06;4.20;1.00
18807;DHT22;9531;52.030;4.380;2022-12-07T23:42:02;4.20;1.00
18807;DHT22;9531;52.030;4.380;2022-12-07T23:59:13;4.20;1.00
